Time;durP1;ratioP1;P1;durP2;ratioP2;P2;SDS_P1;SDS_P2;PMS_P1;PMS_P2;Temp;Humidity;BMP_temperature;BMP_pressure;BME280_temperature;BME280_humidity;BME280_pressure;Samples;Min_cycle;Max_cycle;Signal;HPM_P1;HPM_P2
2022/07/25 00:02:15;;;;;;;8.05;7.25;;;;;;;20.75;nan;100907.38;5051414;28;20147;-66
2022/07/25 00:04:41;;;;;;;6.70;6.10;;;;;;;20.81;nan;100916.75;5051401;28;20044;-66
2022/07/25 00:07:06;;;;;;;6.85;6.18;;;;;;;20.64;nan;100901.09;5068312;28;20127;-65
2022/07/25 00:09:31;;;;;;;6.63;5.88;;;;;;;20.42;nan;100864.38;5068155;28;20453;-66
2022/07/25 00:11:57;;;;;;;6.60;5.75;;;;;;;20.23;nan;100831.88;5068081;28;20025;-66
2022/07/25 00:14:22;;;;;;;7.45;6.13;;;;;;;20.32;nan;100847.28;5052405;28;20069;-66
2022/07/25 00:16:47;;;;;;;7.05;6.35;;;;;;;20.54;nan;100876.00;5052624;28;20052;-66
2022/07/25 00:19:13;;;;;;;6.55;5.78;;;;;;;20.62;nan;100905.72;5067716;28;20059;-65
2022/07/25 00:21:38;;;;;;;5.65;5.20;;;;;;;20.29;nan;100844.84;5051141;28;20062;-65
2022/07/25 00:24:04;;;;;;;9.60;5.90;;;;;;;20.62;nan;100890.53;5052079;28;20049;-65
2022/07/25 00:26:29;;;;;;;6.35;5.75;;;;;;;20.62;nan;100884.31;5052100;28;20041;-65
2022/07/25 00:28:54;;;;;;;7.32;6.38;;;;;;;20.31;nan;100824.22;5052482;28;20027;-65
2022/07/25 00:31:20;;;;;;;7.75;5.70;;;;;;;20.64;nan;100893.06;5052298;28;20435;-65
2022/07/25 00:33:45;;;;;;;5.95;5.40;;;;;;;20.63;nan;100876.19;5052383;28;20037;-64
2022/07/25 00:36:10;;;;;;;7.80;6.57;;;;;;;20.16;nan;100793.22;5067639;28;20037;-66
2022/07/25 00:38:36;;;;;;;6.65;6.05;;;;;;;20.58;nan;100883.69;5052508;28;20029;-65
2022/07/25 00:41:02;;;;;;;7.43;5.75;;;;;;;20.53;nan;100864.44;5052214;28;20029;-65
2022/07/25 00:43:28;;;;;;;8.43;6.40;;;;;;;20.57;nan;100871.28;5052521;28;20032;-65
2022/07/25 00:45:53;;;;;;;7.53;6.38;;;;;;;20.16;nan;100803.91;5050763;28;20381;-66
2022/07/25 00:48:18;;;;;;;6.57;5.95;;;;;;;20.55;nan;100859.84;5052226;28;20384;-65
2022/07/25 00:50:43;;;;;;;5.78;5.18;;;;;;;20.38;nan;100822.78;5052298;28;20037;-67
2022/07/25 00:53:09;;;;;;;6.07;5.50;;;;;;;20.23;nan;100804.31;5051933;28;20048;-66
2022/07/25 00:55:34;;;;;;;5.85;5.30;;;;;;;20.61;nan;100855.84;5050956;28;20037;-65
2022/07/25 00:57:59;;;;;;;6.57;5.45;;;;;;;20.55;nan;100848.28;5052037;28;20098;-66
2022/07/25 01:00:25;;;;;;;6.07;5.47;;;;;;;20.53;nan;100832.34;5052080;28;20468;-66
2022/07/25 01:02:50;;;;;;;6.97;5.45;;;;;;;20.45;nan;100817.84;5052327;28;20392;-66
2022/07/25 01:05:15;;;;;;;7.13;5.95;;;;;;;20.26;nan;100774.75;5067430;28;20033;-65
2022/07/25 01:07:41;;;;;;;6.60;6.00;;;;;;;20.51;nan;100820.94;5052023;28;20086;-65
2022/07/25 01:10:07;;;;;;;6.20;5.55;;;;;;;20.54;nan;100830.53;5051888;28;20119;-65
2022/07/25 01:12:43;;;;;;;7.18;5.63;;;;;;;20.54;nan;100823.38;5067338;28;20071;-65
2022/07/25 01:15:09;;;;;;;6.50;5.90;;;;;;;20.54;nan;100820.72;5051724;28;20079;-64
2022/07/25 01:17:34;;;;;;;6.60;5.90;;;;;;;20.30;nan;100792.25;5051959;28;20080;-65
2022/07/25 01:19:59;;;;;;;6.03;5.53;;;;;;;20.58;nan;100829.34;5051948;28;20029;-65
2022/07/25 01:22:25;;;;;;;6.93;5.85;;;;;;;20.61;nan;100821.09;5051696;28;20049;-66
2022/07/25 01:24:50;;;;;;;6.05;5.55;;;;;;;20.60;nan;100828.28;5051537;28;20061;-66
2022/07/25 01:27:15;;;;;;;6.10;5.53;;;;;;;20.53;nan;100815.47;5051924;28;20435;-66
2022/07/25 01:29:41;;;;;;;6.60;6.00;;;;;;;20.39;nan;100784.41;5067186;28;20037;-66
2022/07/25 01:32:06;;;;;;;7.15;5.82;;;;;;;20.20;nan;100752.78;5051630;28;20060;-65
2022/07/25 01:34:31;;;;;;;6.20;5.60;;;;;;;20.47;nan;100798.06;5067538;28;20065;-65
2022/07/25 01:36:57;;;;;;;7.35;6.10;;;;;;;20.44;nan;100786.72;5067327;28;20040;-65
2022/07/25 01:39:22;;;;;;;6.00;5.50;;;;;;;20.45;nan;100786.63;5054584;28;20082;-65
2022/07/25 01:41:47;;;;;;;7.85;5.57;;;;;;;20.06;nan;100722.69;5055391;28;20062;-65
2022/07/25 01:44:13;;;;;;;7.45;6.07;;;;;;;20.45;nan;100791.13;5055255;28;20037;-64
2022/07/25 01:46:38;;;;;;;7.95;6.00;;;;;;;20.15;nan;100732.72;5053800;28;20059;-65
2022/07/25 01:49:03;;;;;;;8.50;5.93;;;;;;;20.46;nan;100782.97;5055305;28;20029;-65
2022/07/25 01:51:29;;;;;;;7.00;6.30;;;;;;;20.40;nan;100759.34;5055255;28;20031;-64
2022/07/25 01:53:54;;;;;;;7.90;6.53;;;;;;;20.51;nan;100786.19;5055396;28;20128;-64
2022/07/25 01:56:19;;;;;;;6.88;6.28;;;;;;;20.51;nan;100779.97;5053725;28;20048;-64
2022/07/25 01:58:45;;;;;;;9.75;7.03;;;;;;;20.49;nan;100776.56;5055093;28;20037;-65
2022/07/25 02:01:10;;;;;;;7.93;6.60;;;;;;;20.46;nan;100774.94;5055089;28;20446;-64
2022/07/25 02:03:35;;;;;;;6.82;6.25;;;;;;;20.45;nan;100783.94;5055056;28;20090;-64
2022/07/25 02:06:03;;;;;;;8.45;6.38;;;;;;;20.37;nan;100762.28;5070468;28;20116;-63
2022/07/25 02:08:29;;;;;;;7.75;6.93;;;;;;;20.42;nan;100759.25;5070462;28;20029;-64
2022/07/25 02:10:55;;;;;;;9.55;7.05;;;;;;;20.40;nan;100747.84;5070541;28;20021;-65
2022/07/25 02:13:21;;;;;;;7.63;6.90;;;;;;;20.45;nan;100749.19;5054791;28;20498;-65
2022/07/25 02:15:47;;;;;;;7.78;7.07;;;;;;;20.22;nan;100709.91;5054714;28;20040;-63
2022/07/25 02:18:12;;;;;;;7.53;6.82;;;;;;;20.26;nan;100711.41;5070091;28;20048;-65
2022/07/25 02:20:37;;;;;;;15.82;7.38;;;;;;;20.41;nan;100750.38;5054667;28;20029;-65
2022/07/25 02:23:03;;;;;;;10.20;6.80;;;;;;;20.42;nan;100745.88;5054390;28;20045;-64
2022/07/25 02:25:29;;;;;;;8.27;7.32;;;;;;;20.36;nan;100735.66;5070011;28;20472;-65
2022/07/25 02:27:54;;;;;;;8.82;6.40;;;;;;;20.41;nan;100744.16;5054440;28;20132;-65
2022/07/25 02:30:19;;;;;;;8.57;7.38;;;;;;;20.03;nan;100675.69;5054613;28;20033;-66
2022/07/25 02:32:45;;;;;;;8.40;7.60;;;;;;;20.41;nan;100741.50;5054801;28;20037;-65
2022/07/25 02:35:10;;;;;;;9.50;7.22;;;;;;;20.14;nan;100693.56;5070176;28;20033;-65
2022/07/25 02:37:35;;;;;;;6.88;6.28;;;;;;;20.13;nan;100681.22;5069946;28;20036;-65
2022/07/25 02:40:01;;;;;;;8.00;6.45;;;;;;;20.03;nan;100661.47;5069719;28;20492;-64
2022/07/25 02:42:26;;;;;;;7.45;6.70;;;;;;;20.18;nan;100690.59;5054193;28;20372;-65
2022/07/25 02:44:51;;;;;;;7.35;6.68;;;;;;;20.34;nan;100724.22;5069746;28;20024;-63
2022/07/25 02:47:17;;;;;;;7.10;6.30;;;;;;;20.26;nan;100711.41;5054226;28;20476;-65
2022/07/25 02:49:42;;;;;;;7.13;5.85;;;;;;;20.03;nan;100675.69;5069281;28;20047;-64
2022/07/25 02:52:08;;;;;;;6.85;6.25;;;;;;;19.86;nan;100643.16;5054355;28;20048;-64
2022/07/25 02:54:33;;;;;;;7.40;6.38;;;;;;;20.04;nan;100689.91;5054095;28;20029;-64
2022/07/25 02:56:58;;;;;;;6.80;6.20;;;;;;;19.97;nan;100667.25;5054151;28;20125;-64
2022/07/25 02:59:24;;;;;;;7.70;6.18;;;;;;;19.90;nan;100661.53;5054247;28;20056;-65
2022/07/25 03:01:49;;;;;;;9.50;7.20;;;;;;;20.18;nan;100714.63;5054007;28;20144;-63
2022/07/25 03:04:14;;;;;;;7.65;6.95;;;;;;;19.93;nan;100693.38;5053946;28;20464;-63
2022/07/25 03:06:40;;;;;;;7.22;6.53;;;;;;;19.90;nan;100687.41;5054028;28;20029;-65
2022/07/25 03:09:05;;;;;;;7.43;6.32;;;;;;;19.97;nan;100702.00;5053696;28;20087;-64
2022/07/25 03:11:30;;;;;;;8.00;7.20;;;;;;;20.14;nan;100722.97;5053779;28;20116;-65
2022/07/25 03:13:56;;;;;;;9.38;6.65;;;;;;;20.05;nan;100703.13;5053868;28;20136;-65
2022/07/25 03:16:22;;;;;;;6.63;6.03;;;;;;;19.91;nan;100681.06;5053801;28;20162;-64
2022/07/25 03:18:47;;;;;;;7.03;6.35;;;;;;;20.21;nan;100716.22;5053628;28;20041;-64
2022/07/25 03:21:12;;;;;;;6.55;5.90;;;;;;;20.22;nan;100725.97;5053589;28;20033;-64
2022/07/25 03:23:38;;;;;;;6.55;5.95;;;;;;;20.24;nan;100732.03;5053515;28;20048;-64
2022/07/25 03:26:03;;;;;;;6.40;5.80;;;;;;;20.25;nan;100733.78;5053289;28;20029;-64
2022/07/25 03:28:29;;;;;;;7.50;6.70;;;;;;;20.07;nan;100695.00;5051930;28;20419;-64
2022/07/25 03:30:54;;;;;;;6.95;5.85;;;;;;;19.99;nan;100686.72;5053699;28;20134;-65
2022/07/25 03:33:19;;;;;;;6.18;5.47;;;;;;;20.21;nan;100721.56;5068970;28;20057;-64
2022/07/25 03:35:45;;;;;;;7.00;5.18;;;;;;;20.26;nan;100738.13;5053027;28;20048;-64
2022/07/25 03:38:10;;;;;;;6.30;5.15;;;;;;;20.24;nan;100740.06;5068843;28;20449;-63
2022/07/25 03:40:36;;;;;;;5.50;4.10;;;;;;;20.24;nan;100740.06;5051976;28;20075;-63
2022/07/25 03:43:01;;;;;;;5.35;3.60;;;;;;;20.08;nan;100712.78;5051752;28;20132;-63
2022/07/25 03:45:27;;;;;;;4.18;3.78;;;;;;;20.26;nan;100734.66;5068306;28;20120;-65
2022/07/25 03:47:53;;;;;;;5.38;3.92;;;;;;;20.07;nan;100700.38;5068671;28;20396;-64
2022/07/25 03:50:18;;;;;;;4.60;3.88;;;;;;;20.27;nan;100729.16;5053044;28;20071;-64
2022/07/25 03:52:43;;;;;;;4.88;3.63;;;;;;;20.34;nan;100749.16;5052956;28;20037;-63
2022/07/25 03:55:10;;;;;;;4.05;3.47;;;;;;;20.38;nan;100755.09;5052820;28;20059;-64
2022/07/25 03:57:35;;;;;;;4.55;4.07;;;;;;;20.17;nan;100707.56;5068299;28;20037;-64
2022/07/25 04:00:02;;;;;;;4.32;3.53;;;;;;;20.07;nan;100695.00;5053109;28;20469;-65
2022/07/25 04:02:27;;;;;;;5.20;3.70;;;;;;;20.38;nan;100739.06;5052071;28;20120;-64
2022/07/25 04:04:52;;;;;;;4.45;3.75;;;;;;;20.19;nan;100697.66;5067521;28;20128;-65
2022/07/25 04:07:18;;;;;;;4.25;3.28;;;;;;;20.48;nan;100743.63;5051961;28;20037;-65
2022/07/25 04:09:43;;;;;;;5.93;4.20;;;;;;;20.40;nan;100724.59;5067337;28;20033;-65
2022/07/25 04:12:09;;;;;;;4.78;3.80;;;;;;;20.33;nan;100714.50;5052712;28;20067;-64
2022/07/25 04:14:34;;;;;;;4.13;3.72;;;;;;;20.44;nan;100725.22;5053038;28;20178;-63
2022/07/25 04:17:00;;;;;;;7.20;4.18;;;;;;;20.48;nan;100743.63;5068141;28;20044;-63
2022/07/25 04:19:25;;;;;;;6.63;4.10;;;;;;;20.43;nan;100729.72;5052655;28;20072;-65
2022/07/25 04:21:50;;;;;;;5.13;4.63;;;;;;;20.48;nan;100735.59;5052563;28;20044;-64
2022/07/25 04:24:15;;;;;;;7.90;4.53;;;;;;;20.30;nan;100690.66;5052121;28;20064;-63
2022/07/25 04:26:41;;;;;;;5.45;4.32;;;;;;;20.53;nan;100728.06;5052374;28;20392;-63
2022/07/25 04:29:06;;;;;;;6.85;4.60;;;;;;;20.25;nan;100691.03;5052486;28;20061;-64
2022/07/25 04:31:32;;;;;;;6.22;5.22;;;;;;;20.19;nan;100681.59;5052926;28;20480;-64
2022/07/25 04:33:57;;;;;;;4.97;4.25;;;;;;;20.18;nan;100681.72;5051019;28;20033;-62
2022/07/25 04:36:22;;;;;;;6.75;5.03;;;;;;;20.43;nan;100718.19;5050811;28;20464;-64
2022/07/25 04:38:48;;;;;;;4.60;3.95;;;;;;;20.43;nan;100713.69;5052292;28;20033;-64
2022/07/25 04:41:13;;;;;;;4.60;4.20;;;;;;;20.39;nan;100703.34;5052094;28;20098;-65
2022/07/25 04:43:38;;;;;;;7.05;3.90;;;;;;;20.32;nan;100689.56;5052373;28;20399;-64
2022/07/25 04:46:04;;;;;;;5.68;4.07;;;;;;;20.20;nan;100669.06;5052127;28;20033;-64
2022/07/25 04:48:29;;;;;;;8.20;3.97;;;;;;;20.16;nan;100660.47;5052156;28;20033;-65
2022/07/25 04:50:54;;;;;;;4.45;4.05;;;;;;;20.47;nan;100708.97;5050809;28;20033;-64
2022/07/25 04:53:20;;;;;;;5.97;3.95;;;;;;;20.23;nan;100668.03;5052077;28;20044;-64
2022/07/25 04:55:45;;;;;;;4.15;3.67;;;;;;;20.59;nan;100719.59;5050735;28;20036;-63
2022/07/25 04:58:11;;;;;;;4.63;3.33;;;;;;;20.69;nan;100730.44;5052404;28;20037;-64
2022/07/25 05:00:36;;;;;;;4.22;3.83;;;;;;;20.74;nan;100713.06;5050946;28;20037;-64
2022/07/25 05:03:01;;;;;;;3.78;3.05;;;;;;;20.51;nan;100656.97;5051930;28;20029;-64
2022/07/25 05:05:27;;;;;;;5.25;3.25;;;;;;;20.87;nan;100706.78;5051835;28;20041;-63
2022/07/25 05:07:57;;;;;;;3.33;2.90;;;;;;;20.88;nan;100714.69;5051938;28;20043;-63
2022/07/25 05:10:23;;;;;;;4.13;3.05;;;;;;;20.96;nan;100732.81;5051954;28;20069;-64
2022/07/25 05:12:49;;;;;;;6.07;2.90;;;;;;;20.66;nan;100661.16;5052758;28;20112;-63
2022/07/25 05:15:14;;;;;;;5.78;3.22;;;;;;;20.91;nan;100700.22;5056120;28;20116;-62
2022/07/25 05:17:40;;;;;;;2.92;2.72;;;;;;;21.01;nan;100715.47;5056217;28;20041;-63
2022/07/25 05:20:06;;;;;;;2.83;2.50;;;;;;;20.80;nan;100668.94;5071255;28;20387;-63
2022/07/25 05:22:31;;;;;;;3.63;2.70;;;;;;;20.85;nan;100671.25;5055942;28;20041;-64
2022/07/25 05:24:57;;;;;;;2.53;2.33;;;;;;;20.95;nan;100683.81;5055350;28;20458;-64
2022/07/25 05:27:22;;;;;;;3.72;2.60;;;;;;;21.24;nan;100724.41;5055568;28;20036;-64
2022/07/25 05:29:48;;;;;;;2.35;2.15;;;;;;;21.33;nan;100737.06;5054435;28;20045;-62
2022/07/25 05:32:13;;;;;;;3.70;2.33;;;;;;;21.23;nan;100709.28;5055681;28;20521;-64
2022/07/25 05:34:38;;;;;;;4.13;2.20;;;;;;;21.51;nan;100748.97;5055477;28;20037;-61
2022/07/25 05:37:04;;;;;;;2.17;1.83;;;;;;;21.56;nan;100754.84;5055534;28;20484;-62
2022/07/25 05:39:29;;;;;;;1.70;1.50;;;;;;;21.43;nan;100710.41;5055466;28;20044;-63
2022/07/25 05:41:54;;;;;;;3.08;1.80;;;;;;;21.49;nan;100696.53;5070941;28;20037;-61
2022/07/25 05:44:19;;;;;;;2.13;1.85;;;;;;;21.57;nan;100696.78;5054241;28;20143;-63
2022/07/25 05:46:45;;;;;;;1.75;1.65;;;;;;;21.97;nan;100753.38;5070722;28;20036;-63
2022/07/25 05:49:10;;;;;;;2.20;1.80;;;;;;;22.11;nan;100748.63;5055325;28;20044;-63
2022/07/25 05:51:36;;;;;;;4.70;1.98;;;;;;;21.89;nan;100708.44;5055165;28;20044;-63
2022/07/25 05:54:01;;;;;;;2.03;1.50;;;;;;;22.20;nan;100772.00;5055278;28;20111;-62
2022/07/25 05:56:26;;;;;;;3.17;1.70;;;;;;;21.98;nan;100717.59;5054911;28;20480;-61
2022/07/25 05:58:52;;;;;;;4.75;1.95;;;;;;;22.19;nan;100761.38;5055217;28;20533;-62
2022/07/25 06:01:17;;;;;;;4.47;1.52;;;;;;;21.99;nan;100708.53;5070625;28;20033;-63
2022/07/25 06:03:43;;;;;;;2.63;1.70;;;;;;;22.22;nan;100743.22;5055211;28;20075;-62
2022/07/25 06:06:08;;;;;;;4.70;1.75;;;;;;;21.95;nan;100701.75;5070139;28;20052;-63
2022/07/25 06:08:37;;;;;;;3.17;1.67;;;;;;;21.83;nan;100684.81;5054891;28;20037;-63
2022/07/25 06:11:04;;;;;;;7.13;2.30;;;;;;;21.72;nan;100676.78;5053637;28;20388;-61
2022/07/25 06:13:30;;;;;;;3.63;1.60;;;;;;;21.42;nan;100664.03;5055074;28;20388;-62
2022/07/25 06:15:56;;;;;;;7.55;2.17;;;;;;;21.67;nan;100736.09;5070490;28;20078;-62
2022/07/25 06:18:23;;;;;;;4.38;2.45;;;;;;;21.27;nan;100667.94;5054860;28;20033;-63
2022/07/25 06:20:48;;;;;;;6.22;2.10;;;;;;;21.24;nan;100678.88;5054722;28;20083;-62
2022/07/25 06:23:14;;;;;;;4.28;1.98;;;;;;;21.16;nan;100679.47;5054290;28;20049;-64
2022/07/25 06:25:40;;;;;;;5.60;2.38;;;;;;;21.40;nan;100716.00;5052413;28;20043;-63
2022/07/25 06:28:05;;;;;;;3.35;1.60;;;;;;;21.33;nan;100706.75;5054361;28;20041;-63
2022/07/25 06:30:30;;;;;;;4.03;1.83;;;;;;;21.05;nan;100673.22;5054251;28;20116;-63
2022/07/25 06:32:56;;;;;;;3.65;1.60;;;;;;;21.30;nan;100719.44;5070102;28;20044;-61
2022/07/25 06:35:21;;;;;;;3.90;1.85;;;;;;;21.25;nan;100713.56;5054399;28;20029;-62
2022/07/25 06:37:46;;;;;;;3.08;1.50;;;;;;;21.24;nan;100714.56;5054381;28;20044;-63
2022/07/25 06:40:12;;;;;;;4.95;1.85;;;;;;;21.06;nan;100680.28;5054342;28;20064;-63
2022/07/25 06:42:39;;;;;;;4.28;1.80;;;;;;;21.27;nan;100708.94;5054319;28;20040;-63
2022/07/25 06:45:10;;;;;;;5.93;1.75;;;;;;;21.28;nan;100710.63;5054197;28;20040;-62
2022/07/25 06:47:37;;;;;;;4.82;1.65;;;;;;;21.14;nan;100678.75;5054084;28;20472;-63
2022/07/25 06:50:04;;;;;;;4.45;2.10;;;;;;;21.25;nan;100677.91;5069490;28;20476;-60
2022/07/25 06:52:29;;;;;;;3.95;1.30;;;;;;;21.50;nan;100712.47;5053892;28;20044;-63
2022/07/25 06:54:54;;;;;;;4.38;1.40;;;;;;;21.43;nan;100678.25;5054267;28;20037;-63
2022/07/25 06:57:20;;;;;;;3.92;1.42;;;;;;;21.67;nan;100709.31;5053942;28;20033;-63
2022/07/25 06:59:45;;;;;;;4.78;1.38;;;;;;;21.56;nan;100676.31;5053992;28;20028;-62
2022/07/25 07:02:11;;;;;;;3.58;1.65;;;;;;;21.67;nan;100693.22;5053903;28;20076;-62
2022/07/25 07:04:37;;;;;;;2.85;1.25;;;;;;;21.92;nan;100734.16;5052465;28;20369;-62
2022/07/25 07:07:02;;;;;;;3.75;1.50;;;;;;;21.94;nan;100748.28;5053697;28;20094;-62
2022/07/25 07:09:27;;;;;;;5.85;1.80;;;;;;;21.82;nan;100732.19;5054014;28;20033;-62
2022/07/25 07:11:53;;;;;;;3.95;1.52;;;;;;;21.75;nan;100733.63;5053828;28;20036;-61
2022/07/25 07:14:18;;;;;;;2.88;1.63;;;;;;;21.30;nan;100673.06;5053705;28;20119;-63
2022/07/25 07:16:43;;;;;;;5.38;1.50;;;;;;;21.50;nan;100725.00;5053516;28;20036;-64
2022/07/25 07:19:13;;;;;;;3.33;1.42;;;;;;;21.28;nan;100686.53;5052223;28;20079;-63
2022/07/25 07:21:39;;;;;;;4.10;1.85;;;;;;;21.51;nan;100732.91;5053312;28;20118;-62
2022/07/25 07:24:06;;;;;;;4.35;2.10;;;;;;;21.35;nan;100702.97;5053343;28;20064;-63
2022/07/25 07:26:31;;;;;;;4.22;1.77;;;;;;;21.39;nan;100714.31;5053614;28;20124;-63
2022/07/25 07:28:56;;;;;;;6.78;2.58;;;;;;;21.38;nan;100694.72;5068807;28;20064;-62
2022/07/25 07:31:22;;;;;;;4.60;2.17;;;;;;;21.76;nan;100734.50;5053398;28;20028;-61
2022/07/25 07:33:47;;;;;;;3.60;2.00;;;;;;;21.89;nan;100743.28;5053221;28;20441;-62
2022/07/25 07:36:12;;;;;;;4.57;2.45;;;;;;;21.84;nan;100702.56;5053198;28;20025;-61
2022/07/25 07:38:38;;;;;;;8.02;1.85;;;;;;;22.53;nan;100746.06;5051407;28;20067;-62
2022/07/25 07:41:04;;;;;;;5.13;1.85;;;;;;;22.80;nan;100762.53;5052030;28;20493;-61
2022/07/25 07:43:30;;;;;;;7.43;1.92;;;;;;;22.89;nan;100765.28;5051077;28;20036;-61
2022/07/25 07:46:01;;;;;;;3.75;2.15;;;;;;;22.80;nan;100758.03;5050672;28;20037;-60
2022/07/25 07:48:28;;;;;;;10.93;3.58;;;;;;;22.29;nan;100701.53;5067574;28;20120;-60
2022/07/25 07:50:53;;;;;;;6.30;2.08;;;;;;;22.43;nan;100703.91;5067874;28;20025;-61
2022/07/25 07:53:18;;;;;;;5.13;1.55;;;;;;;22.82;nan;100739.13;5052628;28;20044;-62
2022/07/25 07:55:44;;;;;;;4.50;2.00;;;;;;;23.01;nan;100716.91;5052974;28;20415;-60
2022/07/25 07:58:18;;;;;;;3.17;1.63;;;;;;;23.29;nan;100730.50;5052859;28;20468;-60
2022/07/25 08:00:47;;;;;;;7.50;2.33;;;;;;;23.73;nan;100760.75;5052767;28;20116;-61
2022/07/25 08:03:16;;;;;;;7.85;2.08;;;;;;;23.98;nan;100749.50;5052699;28;20025;-61
2022/07/25 08:05:43;;;;;;;3.63;1.92;;;;;;;23.97;nan;100723.59;5068053;28;20060;-61
2022/07/25 08:08:11;;;;;;;5.32;2.05;;;;;;;23.81;nan;100699.09;5052859;28;20044;-60
2022/07/25 08:10:39;;;;;;;4.75;1.80;;;;;;;24.05;nan;100738.03;5052810;28;20037;-61
2022/07/25 08:13:22;;;;;;;6.10;2.10;;;;;;;24.06;nan;100746.97;5052582;28;20037;-62
2022/07/25 08:15:50;;;;;;;6.38;1.60;;;;;;;23.73;nan;100699.75;5052477;28;20025;-61
2022/07/25 08:18:15;;;;;;;7.85;1.77;;;;;;;23.85;nan;100738.97;5051433;28;20044;-61
2022/07/25 08:20:40;;;;;;;3.88;1.95;;;;;;;23.67;nan;100699.47;5052514;28;20033;-62
2022/07/25 08:23:06;;;;;;;5.28;1.85;;;;;;;24.21;nan;100758.22;5052174;28;20053;-60
2022/07/25 08:25:32;;;;;;;5.32;1.60;;;;;;;24.68;nan;100775.41;5052292;28;20029;-60
2022/07/25 08:27:58;;;;;;;3.50;1.33;;;;;;;25.25;nan;100783.44;5067878;28;20560;-59
2022/07/25 08:30:23;;;;;;;5.45;2.15;;;;;;;25.72;nan;100781.66;5052348;28;20037;-61
2022/07/25 08:32:58;;;;;;;6.28;2.03;;;;;;;25.96;nan;100790.06;5052570;28;20036;-61
2022/07/25 08:35:25;;;;;;;5.55;1.80;;;;;;;26.53;nan;100793.47;5052251;28;20108;-63
2022/07/25 08:37:51;;;;;;;3.97;1.33;;;;;;;26.61;nan;100756.59;5065920;28;20484;-63
2022/07/25 08:40:18;;;;;;;3.88;1.58;;;;;;;26.73;nan;100786.91;5051258;28;20072;-61
2022/07/25 08:42:44;;;;;;;6.35;1.70;;;;;;;26.75;nan;100820.00;5066383;28;20404;-61
2022/07/25 08:45:15;;;;;;;3.42;1.60;;;;;;;26.76;nan;100810.91;5066311;28;20040;-61
2022/07/25 08:47:41;;;;;;;4.13;1.40;;;;;;;26.68;nan;100819.75;5065400;28;20383;-61
2022/07/25 08:50:09;;;;;;;3.35;1.30;;;;;;;26.27;nan;100815.75;5051051;28;20488;-61
2022/07/25 08:52:35;;;;;;;3.75;1.40;;;;;;;25.67;nan;100773.16;5066444;28;20107;-62
2022/07/25 08:55:06;;;;;;;3.33;1.50;;;;;;;25.38;nan;100813.66;5051083;28;20029;-62
2022/07/25 08:57:33;;;;;;;3.80;1.88;;;;;;;24.81;nan;100760.69;5066318;28;20226;-62
2022/07/25 08:59:58;;;;;;;6.70;1.80;;;;;;;24.67;nan;100790.69;5066409;28;20108;-59
2022/07/25 09:02:26;;;;;;;6.20;1.35;;;;;;;24.31;nan;100777.91;5066298;28;20432;-61
2022/07/25 09:04:51;;;;;;;8.10;2.45;;;;;;;23.88;nan;100745.91;5050712;28;20037;-59
2022/07/25 09:07:16;;;;;;;4.78;1.75;;;;;;;24.03;nan;100783.03;5050826;28;20450;-62
2022/07/25 09:09:43;;;;;;;5.95;2.08;;;;;;;23.85;nan;100790.03;5049873;28;20115;-62
2022/07/25 09:12:08;;;;;;;7.03;1.95;;;;;;;23.90;nan;100785.13;5049737;28;20480;-61
2022/07/25 09:14:43;;;;;;;6.25;2.35;;;;;;;23.67;nan;100751.34;5048497;28;20093;-60
2022/07/25 09:17:08;;;;;;;7.22;2.35;;;;;;;23.98;nan;100788.00;5050380;28;20037;-60
2022/07/25 09:19:34;;;;;;;6.88;2.00;;;;;;;23.90;nan;100790.50;5050521;28;20106;-60
2022/07/25 09:22:01;;;;;;;6.18;2.60;;;;;;;23.85;nan;100802.63;5050561;28;20073;-62
2022/07/25 09:24:27;;;;;;;8.75;2.47;;;;;;;23.81;nan;100815.53;5050375;28;20064;-59
2022/07/25 09:26:55;;;;;;;7.28;2.45;;;;;;;23.58;nan;100818.50;5050775;28;20037;-61
2022/07/25 09:29:27;;;;;;;5.75;2.15;;;;;;;23.43;nan;100840.34;5050443;28;20029;-60
2022/07/25 09:31:53;;;;;;;3.80;1.95;;;;;;;23.62;nan;100828.84;5050618;28;20040;-60
2022/07/25 09:34:29;;;;;;;6.22;2.42;;;;;;;24.89;nan;100830.00;5050730;28;20037;-60
2022/07/25 09:36:55;;;;;;;7.13;2.45;;;;;;;25.99;nan;100819.44;5050491;28;20048;-60
2022/07/25 09:39:20;;;;;;;7.18;2.35;;;;;;;26.97;nan;100833.06;5065876;28;20040;-61
2022/07/25 09:41:48;;;;;;;5.93;2.20;;;;;;;27.57;nan;100869.25;5066008;28;20500;-62
2022/07/25 09:44:18;;;;;;;5.53;2.05;;;;;;;28.13;nan;100841.72;5050469;28;20029;-61
2022/07/25 09:46:43;;;;;;;7.18;1.95;;;;;;;28.65;nan;100879.50;5066110;28;20127;-61
2022/07/25 09:49:12;;;;;;;6.63;2.10;;;;;;;28.38;nan;100884.09;5049159;28;20516;-58
2022/07/25 09:51:37;;;;;;;6.28;2.17;;;;;;;27.78;nan;100875.13;5065369;28;20480;-59
2022/07/25 09:54:03;;;;;;;6.65;2.13;;;;;;;28.18;nan;100887.22;5066023;28;20048;-60
2022/07/25 09:56:28;;;;;;;5.78;2.05;;;;;;;27.55;nan;100767.66;5050469;28;20033;-61
2022/07/25 09:58:54;;;;;;;5.70;2.28;;;;;;;27.92;nan;100868.28;5049304;28;20115;-61
2022/07/25 10:01:21;;;;;;;5.00;2.67;;;;;;;27.75;nan;100888.13;5052916;28;20037;-61
2022/07/25 10:03:49;;;;;;;7.50;2.63;;;;;;;27.36;nan;100898.44;5069436;28;20039;-61
2022/07/25 10:06:31;;;;;;;7.20;2.33;;;;;;;26.71;nan;100899.59;5053770;28;20480;-60
2022/07/25 10:08:56;;;;;;;5.88;2.47;;;;;;;26.11;nan;100874.91;5069071;28;20480;-57
2022/07/25 10:11:24;;;;;;;5.65;2.65;;;;;;;25.51;nan;100889.66;5053717;28;20044;-61
2022/07/25 10:13:51;;;;;;;6.70;2.75;;;;;;;24.72;nan;100825.28;5053722;28;20123;-61
2022/07/25 10:16:18;;;;;;;5.65;2.22;;;;;;;24.55;nan;100883.31;5052542;28;20037;-59
2022/07/25 10:18:48;;;;;;;5.43;1.88;;;;;;;24.61;nan;100889.00;5053329;28;20032;-61
2022/07/25 10:21:14;;;;;;;5.75;2.65;;;;;;;24.13;nan;100820.75;5053731;28;20033;-60
2022/07/25 10:23:39;;;;;;;7.57;2.30;;;;;;;24.46;nan;100870.72;5053443;28;20060;-62
2022/07/25 10:26:12;;;;;;;7.32;3.00;;;;;;;24.57;nan;100878.66;5069216;28;20037;-61
2022/07/25 10:29:07;;;;;;;8.85;3.03;;;;;;;24.97;nan;100875.91;5069023;28;20507;-62
2022/07/25 10:31:40;;;;;;;8.15;2.90;;;;;;;25.59;nan;100870.09;5067757;28;20120;-63
2022/07/25 10:34:08;;;;;;;8.35;3.03;;;;;;;25.89;nan;100888.72;5052341;28;20069;-62
2022/07/25 10:36:45;;;;;;;6.57;2.60;;;;;;;25.83;nan;100856.13;5053403;28;20107;-61
2022/07/25 10:39:13;;;;;;;9.88;3.08;;;;;;;25.65;nan;100842.56;5052947;28;20033;-60
2022/07/25 10:41:39;;;;;;;7.95;2.90;;;;;;;25.21;nan;100845.84;5068483;28;20380;-59
2022/07/25 10:44:13;;;;;;;9.80;3.10;;;;;;;25.11;nan;100876.34;5053363;28;20192;-61
2022/07/25 10:46:39;;;;;;;7.90;2.70;;;;;;;25.19;nan;100900.72;5068623;28;20033;-62
2022/07/25 10:49:06;;;;;;;7.55;2.65;;;;;;;24.94;nan;100851.94;5052965;28;20117;-63
2022/07/25 10:51:34;;;;;;;8.75;2.70;;;;;;;24.94;nan;100871.66;5068388;28;20501;-64
2022/07/25 10:53:59;;;;;;;7.28;3.28;;;;;;;25.33;nan;100912.06;5051439;28;20032;-61
2022/07/25 10:56:27;;;;;;;6.43;2.63;;;;;;;25.15;nan;100866.13;5051660;28;20041;-61
2022/07/25 10:58:57;;;;;;;11.13;2.67;;;;;;;25.39;nan;100868.41;5053051;28;20037;-64
2022/07/25 11:01:35;;;;;;;6.53;2.80;;;;;;;25.70;nan;100922.00;5053085;28;20065;-61
2022/07/25 11:04:07;;;;;;;8.32;2.65;;;;;;;25.64;nan;100919.88;5068124;28;20124;-61
2022/07/25 11:06:37;;;;;;;6.05;3.15;;;;;;;24.90;nan;100863.97;5067665;28;20051;-62
2022/07/25 11:09:15;;;;;;;9.10;3.22;;;;;;;24.73;nan;100924.72;5068036;28;20037;-62
2022/07/25 11:11:46;;;;;;;9.60;3.28;;;;;;;24.08;nan;100928.69;5052170;28;20033;-64
2022/07/25 11:14:19;;;;;;;8.15;3.20;;;;;;;23.92;nan;100906.81;5052331;28;20052;-63
2022/07/25 11:16:46;;;;;;;6.55;2.72;;;;;;;23.64;nan;100867.19;5052472;28;20029;-61
2022/07/25 11:19:23;;;;;;;6.75;3.13;;;;;;;23.96;nan;100873.28;5067727;28;20032;-58
2022/07/25 11:21:51;;;;;;;9.45;2.72;;;;;;;24.35;nan;100924.59;5067768;28;20072;-55
2022/07/25 11:24:16;;;;;;;7.32;2.97;;;;;;;24.32;nan;100928.41;5052270;28;20476;-58
2022/07/25 11:26:46;;;;;;;9.50;3.15;;;;;;;24.09;nan;100940.31;5052421;28;20098;-54
2022/07/25 11:29:23;;;;;;;5.53;2.63;;;;;;;23.92;nan;100928.34;5052790;28;20028;-58
2022/07/25 11:32:08;;;;;;;5.75;2.70;;;;;;;23.40;nan;100885.41;5052099;28;20032;-59
2022/07/25 11:34:40;;;;;;;7.20;2.63;;;;;;;23.22;nan;100906.59;5067699;28;20035;-57
2022/07/25 11:37:08;;;;;;;10.43;2.40;;;;;;;23.57;nan;100957.38;5067534;28;20094;-55
2022/07/25 11:39:35;;;;;;;8.27;2.33;;;;;;;23.59;nan;100963.47;5067636;28;20528;-54